createdAt,value
2023-03-12T00:00:11.503Z,95.89
2023-03-12T00:01:11.408Z,95.75
2023-03-12T00:02:11.422Z,95.64
2023-03-12T00:03:11.396Z,95.53
2023-03-12T00:04:11.440Z,95.22
2023-03-12T00:05:11.368Z,95.01
2023-03-12T00:06:11.451Z,95.01
2023-03-12T00:07:11.355Z,94.90
2023-03-12T00:08:11.347Z,95.01
2023-03-12T00:09:11.332Z,95.11
2023-03-12T00:10:11.324Z,95.11
2023-03-12T00:11:11.315Z,95.01
2023-03-12T00:12:11.297Z,95.15
2023-03-12T00:13:11.304Z,95.57
2023-03-12T00:14:11.276Z,95.79
2023-03-12T00:15:11.276Z,95.64
2023-03-12T00:16:11.306Z,95.57
2023-03-12T00:17:11.254Z,95.68
2023-03-12T00:18:11.243Z,96.21
2023-03-12T00:19:11.235Z,96.73
2023-03-12T00:20:11.219Z,96.84
2023-03-12T00:21:11.211Z,96.84
2023-03-12T00:22:11.198Z,96.73
2023-03-12T00:23:11.209Z,96.73
2023-03-12T00:24:11.182Z,97.05
2023-03-12T00:25:11.177Z,97.27
2023-03-12T00:26:11.162Z,97.47
2023-03-12T00:27:11.152Z,97.58
2023-03-12T00:28:11.148Z,97.47
2023-03-12T00:29:11.137Z,97.47
2023-03-12T00:30:11.116Z,97.58
2023-03-12T00:31:11.160Z,97.47
2023-03-12T00:32:11.095Z,97.47
2023-03-12T00:33:11.097Z,97.47
2023-03-12T00:34:11.080Z,97.37
2023-03-12T00:35:11.075Z,97.16
2023-03-12T00:36:11.063Z,97.05
2023-03-12T00:37:11.050Z,96.95
2023-03-12T00:38:11.051Z,96.84
2023-03-12T00:39:11.049Z,96.57
2023-03-12T00:40:11.018Z,96.25
2023-03-12T00:41:11.018Z,96.15
2023-03-12T00:42:10.995Z,96.25
2023-03-12T00:43:10.995Z,96.67
2023-03-12T00:44:10.998Z,97.09
2023-03-12T00:45:10.970Z,97.41
2023-03-12T00:46:10.989Z,97.41
2023-03-12T00:47:10.949Z,97.31
2023-03-12T00:48:10.946Z,97.27
2023-03-12T00:49:10.928Z,97.16
2023-03-12T00:50:10.919Z,97.16
2023-03-12T00:51:11.012Z,97.16
2023-03-12T00:52:10.896Z,97.16
2023-03-12T00:53:11.068Z,97.16
2023-03-12T00:54:10.886Z,96.95
2023-03-12T00:55:10.882Z,96.95
2023-03-12T00:56:10.858Z,96.95
2023-03-12T00:57:10.849Z,96.95
2023-03-12T00:58:11.346Z,97.05
2023-03-12T00:59:10.852Z,97.16
2023-03-12T01:00:10.844Z,97.05
2023-03-12T01:01:10.945Z,96.95
2023-03-12T01:02:10.818Z,97.01
2023-03-12T01:03:11.124Z,96.84
2023-03-12T01:04:10.859Z,96.59
2023-03-12T01:05:10.788Z,96.80
2023-03-12T01:06:10.762Z,96.69
2023-03-12T01:07:10.750Z,96.59
2023-03-12T01:08:11.061Z,96.27
2023-03-12T01:09:10.739Z,96.06
2023-03-12T01:10:10.721Z,95.95
2023-03-12T01:11:10.716Z,95.95
2023-03-12T01:12:10.707Z,96.27
2023-03-12T01:13:11.046Z,96.27
2023-03-12T01:14:10.684Z,96.17
2023-03-12T01:15:10.672Z,96.27
2023-03-12T01:16:10.718Z,96.27
2023-03-12T01:17:10.664Z,96.27
2023-03-12T01:18:10.959Z,96.17
2023-03-12T01:19:10.639Z,96.17
2023-03-12T01:20:10.634Z,96.17
2023-03-12T01:21:10.618Z,96.59
2023-03-12T01:22:10.602Z,97.11
2023-03-12T01:23:11.021Z,97.07
2023-03-12T01:24:10.582Z,97.07
2023-03-12T01:25:10.577Z,96.86
2023-03-12T01:26:10.574Z,96.55
2023-03-12T01:27:10.560Z,96.02
2023-03-12T01:28:10.884Z,95.60
2023-03-12T01:29:10.540Z,95.28
2023-03-12T01:30:10.524Z,95.07
2023-03-12T01:31:10.597Z,95.18
2023-03-12T01:32:10.507Z,95.18
2023-03-12T01:33:10.788Z,95.18
2023-03-12T01:34:10.483Z,94.96
2023-03-12T01:35:10.517Z,94.86
2023-03-12T01:36:10.488Z,95.18
2023-03-12T01:37:10.459Z,95.39
2023-03-12T01:38:10.442Z,94.96
2023-03-12T01:39:10.441Z,94.54
2023-03-12T01:40:10.422Z,94.29
2023-03-12T01:41:10.418Z,94.34
2023-03-12T01:42:10.408Z,94.44
2023-03-12T01:43:10.396Z,94.29
2023-03-12T01:44:10.385Z,94.08
2023-03-12T01:45:10.373Z,94.12
2023-03-12T01:46:10.451Z,94.82
2023-03-12T01:47:10.378Z,95.24
2023-03-12T01:48:10.340Z,95.24
2023-03-12T01:49:10.343Z,94.82
2023-03-12T01:50:10.325Z,94.50
2023-03-12T01:51:10.313Z,94.08
2023-03-12T01:52:10.305Z,93.66
2023-03-12T01:53:10.294Z,93.34
2023-03-12T01:54:10.301Z,92.92
2023-03-12T01:55:10.273Z,92.92
2023-03-12T01:56:10.276Z,93.45
2023-03-12T01:57:10.251Z,93.45
2023-03-12T01:58:10.252Z,93.45
2023-03-12T01:59:10.233Z,93.13
2023-03-12T02:00:10.233Z,92.82
2023-03-12T02:01:10.364Z,92.50
2023-03-12T02:02:10.203Z,92.29
2023-03-12T02:03:10.202Z,92.29
2023-03-12T02:04:10.206Z,92.40
2023-03-12T02:05:10.165Z,92.40
2023-03-12T02:06:10.168Z,92.19
2023-03-12T02:07:10.158Z,92.08
2023-03-12T02:08:10.151Z,91.87
2023-03-12T02:09:10.129Z,91.77
2023-03-12T02:10:10.126Z,91.66
2023-03-12T02:11:10.117Z,91.55
2023-03-12T02:12:10.102Z,91.35
2023-03-12T02:13:10.084Z,91.24
2023-03-12T02:14:10.090Z,91.24
2023-03-12T02:15:10.068Z,91.13
2023-03-12T02:16:10.104Z,91.39
2023-03-12T02:17:10.056Z,91.49
2023-03-12T02:18:10.049Z,91.60
2023-03-12T02:19:10.045Z,91.49
2023-03-12T02:20:10.028Z,91.60
2023-03-12T02:21:10.021Z,91.49
2023-03-12T02:22:10.004Z,91.39
2023-03-12T02:23:09.997Z,91.17
2023-03-12T02:24:09.990Z,91.49
2023-03-12T02:25:09.976Z,92.33
2023-03-12T02:26:09.963Z,92.44
2023-03-12T02:27:09.962Z,92.58
2023-03-12T02:28:09.942Z,93.11
2023-03-12T02:29:09.937Z,93.38
2023-03-12T02:30:09.927Z,93.70
2023-03-12T02:31:09.918Z,93.53
2023-03-12T02:32:09.948Z,93.43
2023-03-12T02:33:09.902Z,93.70
2023-03-12T02:34:09.888Z,93.91
2023-03-12T02:35:09.874Z,93.91
2023-03-12T02:36:09.981Z,94.02
2023-03-12T02:37:09.859Z,93.80
2023-03-12T02:38:09.840Z,93.60
2023-03-12T02:39:09.840Z,93.60
2023-03-12T02:40:09.841Z,93.49
2023-03-12T02:41:09.816Z,93.38
2023-03-12T02:42:09.802Z,93.38
2023-03-12T02:43:09.791Z,93.28
2023-03-12T02:44:09.784Z,93.32
2023-03-12T02:45:09.771Z,93.11
2023-03-12T02:46:09.790Z,92.80
2023-03-12T02:47:09.758Z,92.90
2023-03-12T02:48:09.741Z,93.22
2023-03-12T02:49:09.747Z,93.64
2023-03-12T02:50:09.724Z,93.85
2023-03-12T02:51:09.717Z,93.95
2023-03-12T02:52:09.701Z,94.06
2023-03-12T02:53:09.695Z,94.38
2023-03-12T02:54:09.689Z,94.59
2023-03-12T02:55:09.680Z,94.48
2023-03-12T02:56:09.674Z,94.38
2023-03-12T02:57:09.656Z,94.17
2023-03-12T02:58:09.640Z,94.27
2023-03-12T02:59:09.651Z,94.90
2023-03-12T03:00:09.626Z,94.90
2023-03-12T03:01:09.649Z,95.01
2023-03-12T03:02:09.618Z,95.01
2023-03-12T03:03:09.597Z,95.01
2023-03-12T03:04:09.675Z,94.90
2023-03-12T03:05:09.584Z,94.86
2023-03-12T03:06:09.576Z,95.11
2023-03-12T03:07:09.558Z,95.18
2023-03-12T03:08:09.547Z,95.18
2023-03-12T03:09:09.547Z,95.07
2023-03-12T03:10:09.520Z,95.28
2023-03-12T03:11:09.527Z,95.39
2023-03-12T03:12:09.511Z,95.49
2023-03-12T03:13:09.496Z,95.39
2023-03-12T03:14:09.491Z,95.49
2023-03-12T03:15:09.478Z,95.39
2023-03-12T03:16:09.558Z,95.60
2023-03-12T03:17:09.465Z,95.49
2023-03-12T03:18:09.444Z,95.55
2023-03-12T03:19:09.443Z,95.34
2023-03-12T03:20:09.421Z,95.24
2023-03-12T03:21:09.421Z,94.92
2023-03-12T03:22:09.416Z,94.71
2023-03-12T03:23:09.402Z,94.60
2023-03-12T03:24:09.487Z,94.50
2023-03-12T03:25:09.376Z,94.50
2023-03-12T03:26:09.364Z,94.54
2023-03-12T03:27:09.360Z,94.60
2023-03-12T03:28:09.351Z,94.60
2023-03-12T03:29:09.356Z,94.82
2023-03-12T03:30:09.341Z,94.92
2023-03-12T03:31:09.402Z,95.24
2023-03-12T03:32:09.304Z,95.24
2023-03-12T03:33:09.300Z,95.13
2023-03-12T03:34:09.290Z,95.13
2023-03-12T03:35:09.280Z,94.92
2023-03-12T03:36:09.274Z,94.92
2023-03-12T03:37:09.274Z,94.92
2023-03-12T03:38:09.245Z,94.82
2023-03-12T03:39:09.244Z,94.71
2023-03-12T03:40:09.225Z,94.50
2023-03-12T03:41:09.226Z,94.40
2023-03-12T03:42:09.205Z,94.14
2023-03-12T03:43:09.201Z,94.08
2023-03-12T03:44:09.189Z,93.93
2023-03-12T03:45:09.179Z,94.04
2023-03-12T03:46:09.176Z,93.98
2023-03-12T03:47:09.198Z,94.18
2023-03-12T03:48:09.144Z,94.04
2023-03-12T03:49:09.143Z,93.87
2023-03-12T03:50:09.121Z,93.93
2023-03-12T03:51:09.119Z,94.04
2023-03-12T03:52:09.101Z,93.98
2023-03-12T03:53:09.097Z,93.93
2023-03-12T03:54:09.086Z,93.76
2023-03-12T03:55:09.078Z,93.66
2023-03-12T03:56:09.063Z,93.45
2023-03-12T03:57:09.063Z,93.66
2023-03-12T03:58:09.049Z,93.93
2023-03-12T03:59:09.049Z,93.87
2023-03-12T04:00:09.018Z,94.08
2023-03-12T04:01:09.040Z,94.14
2023-03-12T04:02:09.004Z,94.14
2023-03-12T04:03:09.019Z,94.25
2023-03-12T04:04:08.993Z,94.25
2023-03-12T04:05:08.976Z,94.35
2023-03-12T04:06:08.987Z,94.35
2023-03-12T04:07:08.960Z,94.35
2023-03-12T04:08:08.945Z,94.46
2023-03-12T04:09:08.958Z,94.46
2023-03-12T04:10:08.921Z,94.35
2023-03-12T04:11:08.920Z,94.25
2023-03-12T04:12:08.905Z,94.14
2023-03-12T04:13:08.900Z,94.04
2023-03-12T04:14:08.909Z,93.83
2023-03-12T04:15:08.877Z,93.83
2023-03-12T04:16:08.886Z,93.72
2023-03-12T04:17:08.860Z,93.62
2023-03-12T04:18:08.887Z,93.62
2023-03-12T04:19:09.156Z,93.51
2023-03-12T04:20:08.827Z,93.41
2023-03-12T04:21:08.817Z,93.41
2023-03-12T04:22:08.810Z,93.41
2023-03-12T04:23:08.796Z,93.62
2023-03-12T04:24:09.581Z,93.62
2023-03-12T04:25:08.779Z,93.62
2023-03-12T04:26:08.768Z,93.62
2023-03-12T04:27:08.760Z,93.51
2023-03-12T04:28:08.744Z,93.62
2023-03-12T04:29:09.168Z,93.83
2023-03-12T04:30:08.726Z,94.04
2023-03-12T04:31:08.825Z,93.93
2023-03-12T04:32:08.704Z,93.83
2023-03-12T04:33:08.697Z,93.93
2023-03-12T04:34:09.495Z,94.14
2023-03-12T04:35:08.676Z,94.25
2023-03-12T04:36:08.752Z,94.25
2023-03-12T04:37:08.660Z,94.35
2023-03-12T04:38:08.643Z,94.46
2023-03-12T04:39:08.948Z,94.46
2023-03-12T04:40:08.622Z,94.35
2023-03-12T04:41:08.618Z,94.14
2023-03-12T04:42:08.610Z,94.04
2023-03-12T04:43:08.599Z,94.04
2023-03-12T04:44:12.207Z,94.04
2023-03-12T04:45:08.585Z,94.04
2023-03-12T04:46:08.566Z,94.04
2023-03-12T04:47:08.569Z,94.14
2023-03-12T04:48:08.546Z,94.25
2023-03-12T04:49:08.863Z,94.14
2023-03-12T04:50:08.527Z,94.14
2023-03-12T04:51:08.522Z,93.93
2023-03-12T04:52:08.510Z,93.72
2023-03-12T04:53:08.605Z,93.62
2023-03-12T04:54:09.204Z,94.04
2023-03-12T04:55:08.510Z,94.25
2023-03-12T04:56:08.484Z,94.78
2023-03-12T04:57:08.466Z,94.98
2023-03-12T04:58:08.455Z,94.98
2023-03-12T04:59:08.808Z,95.09
2023-03-12T05:00:08.434Z,94.88
2023-03-12T05:01:08.430Z,94.98
2023-03-12T05:02:08.405Z,94.98
2023-03-12T05:03:08.453Z,94.82
2023-03-12T05:04:08.442Z,94.82
2023-03-12T05:05:08.389Z,94.82
2023-03-12T05:06:08.322Z,94.60
2023-03-12T05:07:08.374Z,94.60
2023-03-12T05:08:08.349Z,94.50
2023-03-12T05:09:08.302Z,94.50
2023-03-12T05:10:08.286Z,94.71
2023-03-12T05:11:08.322Z,95.07
2023-03-12T05:12:08.309Z,95.34
2023-03-12T05:13:08.263Z,95.66
2023-03-12T05:14:08.242Z,95.97
2023-03-12T05:15:08.290Z,96.19
2023-03-12T05:16:08.338Z,96.29
2023-03-12T05:17:08.208Z,96.29
2023-03-12T05:18:08.197Z,96.19
2023-03-12T05:19:08.196Z,96.50
2023-03-12T05:20:08.185Z,96.50
2023-03-12T05:21:08.183Z,96.29
2023-03-12T05:22:08.153Z,96.19
2023-03-12T05:23:08.148Z,96.12
2023-03-12T05:24:08.135Z,96.33
2023-03-12T05:25:08.133Z,96.65
2023-03-12T05:26:08.116Z,96.75
2023-03-12T05:27:08.111Z,96.65
2023-03-12T05:28:08.092Z,96.55
2023-03-12T05:29:08.089Z,96.65
2023-03-12T05:30:08.078Z,96.75
2023-03-12T05:31:08.117Z,96.75
2023-03-12T05:32:08.063Z,96.75
2023-03-12T05:33:08.047Z,96.81
2023-03-12T05:34:08.036Z,96.97
2023-03-12T05:35:08.037Z,96.81
2023-03-12T05:36:08.103Z,96.75
2023-03-12T05:37:08.016Z,96.55
2023-03-12T05:38:08.001Z,96.23
2023-03-12T05:39:07.988Z,95.81
2023-03-12T05:40:08.008Z,95.60
2023-03-12T05:41:07.988Z,95.81
2023-03-12T05:42:07.955Z,95.70
2023-03-12T05:43:07.961Z,96.02
2023-03-12T05:44:07.941Z,96.33
2023-03-12T05:45:07.935Z,96.44
2023-03-12T05:46:08.015Z,96.33
2023-03-12T05:47:07.909Z,96.55
2023-03-12T05:48:07.899Z,96.86
2023-03-12T05:49:07.898Z,96.86
2023-03-12T05:50:07.888Z,96.75
2023-03-12T05:51:07.868Z,96.75
2023-03-12T05:52:07.868Z,96.75
2023-03-12T05:53:07.864Z,96.50
2023-03-12T05:54:07.837Z,96.19
2023-03-12T05:55:07.840Z,95.97
2023-03-12T05:56:07.811Z,95.97
2023-03-12T05:57:07.817Z,95.87
2023-03-12T05:58:07.788Z,95.76
2023-03-12T05:59:07.784Z,95.55
2023-03-12T06:00:07.777Z,95.45
2023-03-12T06:01:07.768Z,95.45
2023-03-12T06:02:07.788Z,95.55
2023-03-12T06:03:07.784Z,95.66
2023-03-12T06:04:07.737Z,95.45
2023-03-12T06:05:07.739Z,95.45
2023-03-12T06:06:07.711Z,95.40
2023-03-12T06:07:07.706Z,95.34
2023-03-12T06:08:07.711Z,95.20
2023-03-12T06:09:07.681Z,95.40
2023-03-12T06:10:07.695Z,95.30
2023-03-12T06:11:07.666Z,95.30
2023-03-12T06:12:07.655Z,95.30
2023-03-12T06:13:07.643Z,95.40
2023-03-12T06:14:07.631Z,95.20
2023-03-12T06:15:07.630Z,94.98
2023-03-12T06:16:07.614Z,94.98
2023-03-12T06:17:07.609Z,94.84
2023-03-12T06:18:07.589Z,94.62
2023-03-12T06:19:07.587Z,94.27
2023-03-12T06:20:07.589Z,93.28
2023-03-12T06:21:07.561Z,92.44
2023-03-12T06:22:07.556Z,91.87
2023-03-12T06:23:07.544Z,91.24
2023-03-12T06:24:07.545Z,90.72
2023-03-12T06:25:07.540Z,90.36
2023-03-12T06:26:07.508Z,89.90
2023-03-12T06:27:07.503Z,88.92
2023-03-12T06:28:07.493Z,87.54
2023-03-12T06:29:07.484Z,84.84
2023-03-12T06:30:07.478Z,82.89
2023-03-12T06:31:07.540Z,81.67
2023-03-12T06:32:07.456Z,81.60
2023-03-12T06:33:07.439Z,83.10
2023-03-12T06:34:07.439Z,83.56
2023-03-12T06:35:07.439Z,84.29
2023-03-12T06:36:07.413Z,85.02
2023-03-12T06:37:07.400Z,85.69
2023-03-12T06:38:07.391Z,86.11
2023-03-12T06:39:07.377Z,86.22
2023-03-12T06:40:07.384Z,87.05
2023-03-12T06:41:07.359Z,87.23
2023-03-12T06:42:07.360Z,86.55
2023-03-12T06:43:07.367Z,85.51
2023-03-12T06:44:07.330Z,85.05
2023-03-12T06:45:07.324Z,82.15
2023-03-12T06:46:07.367Z,79.99
2023-03-12T06:47:07.298Z,80.30
2023-03-12T06:48:07.292Z,79.74
2023-03-12T06:49:07.282Z,79.05
2023-03-12T06:50:07.280Z,79.78
2023-03-12T06:51:07.260Z,80.24
2023-03-12T06:52:07.257Z,81.84
2023-03-12T06:53:07.238Z,81.67
2023-03-12T06:54:07.230Z,82.19
2023-03-12T06:55:07.228Z,82.50
2023-03-12T06:56:07.215Z,82.92
2023-03-12T06:57:07.198Z,82.89
2023-03-12T06:58:07.204Z,80.89
2023-03-12T06:59:07.182Z,79.91
2023-03-12T07:00:07.185Z,78.87
2023-03-12T07:01:07.168Z,78.35
2023-03-12T07:02:07.198Z,77.17
2023-03-12T07:03:07.151Z,75.46
2023-03-12T07:04:07.147Z,72.03
2023-03-12T07:05:07.175Z,71.38
2023-03-12T07:06:07.118Z,71.03
2023-03-12T07:07:07.111Z,69.10
2023-03-12T07:08:07.103Z,67.65
2023-03-12T07:09:07.108Z,68.10
2023-03-12T07:10:07.117Z,68.26
2023-03-12T07:11:07.069Z,68.71
2023-03-12T07:12:07.065Z,69.50
2023-03-12T07:13:07.046Z,70.81
2023-03-12T07:14:07.045Z,73.76
2023-03-12T07:15:07.046Z,74.01
2023-03-12T07:16:07.064Z,74.04
2023-03-12T07:17:07.007Z,75.92
2023-03-12T07:18:07.004Z,76.26
2023-03-12T07:19:07.005Z,76.33
2023-03-12T07:20:07.009Z,75.63
2023-03-12T07:21:06.967Z,76.37
2023-03-12T07:22:06.961Z,76.57
2023-03-12T07:23:06.957Z,76.12
2023-03-12T07:24:06.983Z,76.12
2023-03-12T07:25:07.659Z,75.74
2023-03-12T07:26:06.925Z,75.67
2023-03-12T07:27:06.917Z,76.82
2023-03-12T07:28:06.908Z,77.27
2023-03-12T07:29:06.894Z,77.51
2023-03-12T07:30:06.898Z,78.77
2023-03-12T07:31:06.955Z,80.02
2023-03-12T07:32:06.862Z,80.38
2023-03-12T07:33:07.075Z,80.79
2023-03-12T07:34:06.976Z,80.65
2023-03-12T07:35:06.850Z,80.06
2023-03-12T07:36:06.978Z,81.00
2023-03-12T07:37:06.807Z,81.32
2023-03-12T07:38:06.875Z,82.57
2023-03-12T07:39:06.777Z,82.46
2023-03-12T07:40:07.167Z,82.78
2023-03-12T07:41:06.846Z,83.06
2023-03-12T07:42:06.830Z,82.84
2023-03-12T07:43:06.756Z,81.80
2023-03-12T07:44:06.800Z,81.49
2023-03-12T07:45:07.570Z,83.16
2023-03-12T07:46:06.727Z,81.38
2023-03-12T07:47:22.388Z,83.16
2023-03-12T07:48:06.747Z,82.64
2023-03-12T07:49:06.676Z,82.81
2023-03-12T07:50:06.718Z,82.60
2023-03-12T07:51:06.667Z,81.66
2023-03-12T07:52:06.682Z,81.76
2023-03-12T07:53:06.634Z,81.45
2023-03-12T07:54:06.626Z,78.32
2023-03-12T07:55:06.636Z,78.63
2023-03-12T07:56:06.694Z,79.57
2023-03-12T07:57:06.657Z,80.47
2023-03-12T07:58:06.747Z,78.32
2023-03-12T07:59:06.893Z,78.53
2023-03-12T08:00:06.596Z,77.17
2023-03-12T08:01:06.649Z,77.38
2023-03-12T08:02:06.638Z,79.26
2023-03-12T08:03:06.765Z,77.69
2023-03-12T08:04:06.746Z,79.88
2023-03-12T08:05:06.595Z,79.78
2023-03-12T08:06:06.663Z,80.05
2023-03-12T08:07:09.165Z,80.68
2023-03-12T08:08:06.488Z,80.27
2023-03-12T08:09:06.476Z,80.68
2023-03-12T08:10:06.494Z,79.95
2023-03-12T08:11:06.463Z,79.11
2023-03-12T08:12:06.471Z,78.49
2023-03-12T08:13:06.454Z,79.22
2023-03-12T08:14:06.486Z,79.74
2023-03-12T08:15:06.412Z,79.19
2023-03-12T08:16:09.220Z,80.23
2023-03-12T08:17:06.378Z,80.75
2023-03-12T08:18:06.385Z,80.54
2023-03-12T08:19:06.372Z,78.77
2023-03-12T08:20:06.364Z,79.60
2023-03-12T08:21:06.822Z,79.60
2023-03-12T08:22:06.341Z,79.67
2023-03-12T08:23:06.323Z,80.19
2023-03-12T08:24:06.318Z,79.25
2023-03-12T08:25:06.301Z,78.83
2023-03-12T08:26:06.312Z,79.05
2023-03-12T08:27:06.298Z,78.21
2023-03-12T08:28:06.281Z,74.77
2023-03-12T08:29:06.258Z,75.40
2023-03-12T08:30:06.271Z,76.72
2023-03-12T08:31:06.260Z,77.34
2023-03-12T08:32:06.260Z,77.55
2023-03-12T08:33:06.258Z,76.99
2023-03-12T08:34:06.219Z,76.68
2023-03-12T08:35:06.199Z,74.60
2023-03-12T08:36:06.246Z,74.49
2023-03-12T08:37:06.191Z,75.29
2023-03-12T08:38:06.180Z,74.04
2023-03-12T08:39:06.160Z,74.25
2023-03-12T08:40:06.149Z,74.56
2023-03-12T08:41:06.143Z,73.73
2023-03-12T08:42:06.128Z,72.06
2023-03-12T08:43:06.113Z,71.86
2023-03-12T08:44:06.112Z,72.69
2023-03-12T08:45:06.102Z,72.55
2023-03-12T08:46:06.157Z,71.61
2023-03-12T08:47:06.089Z,72.76
2023-03-12T08:48:06.084Z,72.55
2023-03-12T08:49:06.058Z,72.41
2023-03-12T08:50:06.053Z,70.85
2023-03-12T08:51:06.038Z,70.47
2023-03-12T08:52:06.027Z,71.51
2023-03-12T08:53:06.017Z,71.44
2023-03-12T08:54:06.055Z,72.34
2023-03-12T08:55:06.016Z,72.24
2023-03-12T08:56:06.042Z,71.79
2023-03-12T08:57:05.977Z,71.48
2023-03-12T08:58:05.965Z,70.33
2023-03-12T08:59:05.961Z,70.54
2023-03-12T09:00:05.963Z,71.13
2023-03-12T09:01:05.941Z,70.82
2023-03-12T09:02:05.935Z,70.51
2023-03-12T09:03:05.945Z,69.74
2023-03-12T09:04:05.952Z,68.50
2023-03-12T09:05:05.901Z,68.50
2023-03-12T09:06:05.903Z,69.26
2023-03-12T09:07:05.880Z,68.63
2023-03-12T09:08:05.882Z,69.47
2023-03-12T09:09:05.924Z,70.82
2023-03-12T09:10:05.850Z,73.32
2023-03-12T09:11:05.848Z,73.94
2023-03-12T09:12:05.827Z,73.28
2023-03-12T09:13:05.815Z,70.58
2023-03-12T09:14:46.328Z,70.58
2023-03-12T09:15:05.800Z,70.89
2023-03-12T09:16:05.801Z,70.58
2023-03-12T09:17:05.770Z,71.10
2023-03-12T09:18:05.787Z,70.37
2023-03-12T09:19:05.752Z,71.00
2023-03-12T09:20:05.756Z,70.48
2023-03-12T09:21:05.729Z,72.03
2023-03-12T09:22:05.728Z,71.51
2023-03-12T09:23:07.714Z,70.23
2023-03-12T09:24:05.707Z,69.09
2023-03-12T09:25:05.691Z,68.47
2023-03-12T09:26:05.684Z,66.81
2023-03-12T09:27:05.669Z,68.37
2023-03-12T09:28:05.665Z,66.50
2023-03-12T09:29:05.643Z,66.81
2023-03-12T09:30:05.637Z,68.47
2023-03-12T09:31:05.721Z,67.02
2023-03-12T09:32:06.034Z,67.12
2023-03-12T09:33:05.629Z,66.71
2023-03-12T09:34:05.597Z,66.91
2023-03-12T09:35:05.585Z,66.28
2023-03-12T09:36:05.656Z,67.30
2023-03-12T09:37:05.559Z,66.78
2023-03-12T09:38:05.556Z,66.15
2023-03-12T09:39:05.548Z,66.33
2023-03-12T09:40:05.533Z,65.70
2023-03-12T09:41:05.540Z,66.64
2023-03-12T09:42:05.517Z,66.33
2023-03-12T09:43:05.499Z,66.64
2023-03-12T09:44:05.500Z,65.81
2023-03-12T09:45:05.479Z,67.37
2023-03-12T09:46:05.873Z,66.12
2023-03-12T09:47:05.453Z,65.70
2023-03-12T09:48:05.446Z,66.33
2023-03-12T09:49:05.430Z,66.12
2023-03-12T09:50:05.422Z,65.60
2023-03-12T09:51:05.729Z,66.33
2023-03-12T09:52:05.412Z,66.54
2023-03-12T09:53:05.399Z,67.16
2023-03-12T09:54:05.395Z,67.92
2023-03-12T09:55:05.379Z,69.06
2023-03-12T09:56:05.599Z,69.40
2023-03-12T09:57:05.357Z,70.13
2023-03-12T09:58:05.345Z,70.65
2023-03-12T09:59:05.332Z,71.80
2023-03-12T10:00:05.333Z,72.21
2023-03-12T10:01:05.320Z,72.63
2023-03-12T10:02:05.304Z,71.97
2023-03-12T10:03:05.326Z,72.52
2023-03-12T10:04:05.281Z,72.42
2023-03-12T10:05:05.342Z,72.83
2023-03-12T10:06:05.339Z,74.60
2023-03-12T10:07:05.256Z,75.01
2023-03-12T10:08:17.430Z,75.54
2023-03-12T10:09:05.231Z,76.47
2023-03-12T10:10:05.221Z,75.85
2023-03-12T10:11:05.456Z,77.44
2023-03-12T10:12:05.204Z,77.86
2023-03-12T10:13:05.190Z,78.75
2023-03-12T10:14:05.177Z,79.94
2023-03-12T10:15:05.172Z,79.69
2023-03-12T10:16:05.658Z,78.69
2023-03-12T10:17:05.139Z,80.11
2023-03-12T10:18:05.334Z,79.62
2023-03-12T10:19:05.154Z,80.04
2023-03-12T10:20:05.116Z,79.87
2023-03-12T10:21:05.450Z,81.22
2023-03-12T10:22:05.094Z,82.46
2023-03-12T10:23:05.080Z,82.36
2023-03-12T10:24:05.072Z,82.68
2023-03-12T10:25:05.057Z,82.68
2023-03-12T10:26:05.052Z,83.51
2023-03-12T10:27:05.145Z,83.82
2023-03-12T10:28:05.042Z,84.27
2023-03-12T10:29:05.016Z,84.80
2023-03-12T10:30:05.007Z,85.63
2023-03-12T10:31:05.107Z,86.46
2023-03-12T10:32:04.997Z,86.35
2023-03-12T10:33:04.975Z,86.98
2023-03-12T10:34:04.973Z,87.12
2023-03-12T10:35:04.953Z,87.85
2023-03-12T10:36:05.002Z,87.85
2023-03-12T10:37:04.939Z,89.14
2023-03-12T10:38:04.929Z,89.91
2023-03-12T10:39:05.030Z,90.29
2023-03-12T10:40:04.955Z,90.70
2023-03-12T10:41:04.887Z,90.50
2023-03-12T10:42:04.971Z,90.70
2023-03-12T10:43:04.883Z,90.81
2023-03-12T10:44:04.864Z,91.22
2023-03-12T10:45:04.874Z,91.53
2023-03-12T10:46:04.878Z,91.64
2023-03-12T10:47:05.452Z,92.06
2023-03-12T10:48:04.830Z,92.79
2023-03-12T10:49:04.812Z,92.89
2023-03-12T10:50:04.797Z,92.89
2023-03-12T10:51:04.819Z,93.31
2023-03-12T10:52:04.788Z,93.73
2023-03-12T10:53:04.778Z,93.14
2023-03-12T10:54:04.759Z,94.29
2023-03-12T10:55:04.756Z,93.98
2023-03-12T10:56:04.761Z,94.29
2023-03-12T10:57:04.751Z,94.81
2023-03-12T10:58:04.721Z,95.02
2023-03-12T10:59:04.721Z,95.23
2023-03-12T11:00:04.703Z,95.02
2023-03-12T11:01:04.704Z,95.23
2023-03-12T11:02:04.731Z,95.75
2023-03-12T11:03:04.672Z,96.16
2023-03-12T11:04:04.659Z,96.26
2023-03-12T11:05:04.650Z,96.06
2023-03-12T11:06:04.693Z,95.91
2023-03-12T11:07:04.648Z,95.50
2023-03-12T11:08:04.610Z,95.60
2023-03-12T11:09:16.211Z,96.01
2023-03-12T11:10:04.700Z,96.22
2023-03-12T11:11:04.590Z,96.43
2023-03-12T11:12:05.275Z,96.43
2023-03-12T11:13:04.587Z,96.33
2023-03-12T11:14:04.551Z,96.33
2023-03-12T11:15:04.549Z,96.53
2023-03-12T11:16:04.605Z,96.43
2023-03-12T11:17:04.537Z,96.12
2023-03-12T11:18:04.513Z,96.33
2023-03-12T11:19:04.521Z,96.22
2023-03-12T11:20:04.493Z,96.85
2023-03-12T11:21:04.495Z,96.95
2023-03-12T11:22:04.488Z,96.91
2023-03-12T11:23:04.470Z,96.70
2023-03-12T11:24:04.458Z,96.28
2023-03-12T11:25:04.451Z,96.18
2023-03-12T11:26:04.450Z,96.18
2023-03-12T11:27:04.501Z,95.97
2023-03-12T11:28:04.481Z,96.39
2023-03-12T11:29:04.418Z,96.18
2023-03-12T11:30:04.405Z,95.25
2023-03-12T11:31:04.432Z,95.76
2023-03-12T11:32:04.456Z,95.87
2023-03-12T11:33:04.363Z,95.87
2023-03-12T11:34:04.346Z,96.08
2023-03-12T11:35:04.346Z,95.97
2023-03-12T11:36:04.347Z,95.83
2023-03-12T11:37:04.341Z,96.24
2023-03-12T11:38:04.378Z,96.24
2023-03-12T11:39:04.320Z,95.97
2023-03-12T11:40:04.286Z,95.76
2023-03-12T11:41:04.292Z,96.08
2023-03-12T11:42:04.268Z,96.24
2023-03-12T11:43:04.257Z,96.24
2023-03-12T11:44:04.249Z,96.34
2023-03-12T11:45:04.241Z,96.55
2023-03-12T11:46:04.232Z,96.34
2023-03-12T11:47:04.253Z,96.55
2023-03-12T11:48:04.206Z,95.97
2023-03-12T11:49:04.203Z,96.80
2023-03-12T11:50:04.184Z,97.33
2023-03-12T11:51:04.289Z,97.64
2023-03-12T11:52:04.169Z,97.17
2023-03-12T11:53:04.162Z,97.01
2023-03-12T11:54:04.145Z,97.53
2023-03-12T11:55:04.141Z,98.05
2023-03-12T11:56:04.131Z,98.16
2023-03-12T11:57:04.130Z,98.11
2023-03-12T11:58:04.102Z,98.16
2023-03-12T11:59:04.097Z,97.95
2023-03-12T12:00:04.092Z,98.26
2023-03-12T12:01:04.099Z,98.78
2023-03-12T12:02:04.262Z,98.68
2023-03-12T12:03:04.100Z,98.78
2023-03-12T12:04:04.050Z,98.94
2023-03-12T12:05:04.046Z,99.15
2023-03-12T12:06:04.024Z,98.43
2023-03-12T12:07:04.023Z,97.91
2023-03-12T12:08:04.000Z,98.43
2023-03-12T12:09:03.995Z,98.74
2023-03-12T12:10:03.989Z,98.63
2023-03-12T12:11:03.979Z,98.53
2023-03-12T12:12:05.651Z,98.38
2023-03-12T12:13:03.952Z,98.80
2023-03-12T12:14:03.939Z,98.07
2023-03-12T12:15:03.929Z,97.86
2023-03-12T12:16:03.958Z,97.86
2023-03-12T12:17:03.927Z,97.65
2023-03-12T12:18:03.927Z,97.75
2023-03-12T12:19:04.668Z,97.75
2023-03-12T12:20:03.891Z,97.86
2023-03-12T12:21:03.875Z,97.44
2023-03-12T12:22:03.860Z,96.41
2023-03-12T12:23:03.849Z,96.72
2023-03-12T12:24:03.837Z,96.92
2023-03-12T12:25:03.835Z,96.82
2023-03-12T12:26:03.820Z,96.92
2023-03-12T12:27:03.825Z,96.51
2023-03-12T12:28:03.800Z,96.72
2023-03-12T12:29:03.809Z,96.82
2023-03-12T12:30:03.782Z,96.92
2023-03-12T12:31:03.766Z,96.41
2023-03-12T12:32:03.827Z,96.51
2023-03-12T12:33:03.749Z,96.51
2023-03-12T12:34:03.734Z,96.36
2023-03-12T12:35:03.729Z,96.57
2023-03-12T12:36:03.778Z,95.84
2023-03-12T12:37:03.729Z,96.15
2023-03-12T12:38:03.715Z,95.53
2023-03-12T12:39:03.686Z,94.49
2023-03-12T12:40:03.681Z,94.90
2023-03-12T12:41:03.673Z,95.11
2023-03-12T12:42:03.657Z,95.42
2023-03-12T12:43:03.645Z,95.42
2023-03-12T12:44:03.629Z,95.84
2023-03-12T12:45:03.626Z,96.36
2023-03-12T12:46:03.706Z,95.79
2023-03-12T12:47:03.607Z,95.94
2023-03-12T12:48:03.588Z,96.00
2023-03-12T12:49:03.580Z,95.42
2023-03-12T12:50:03.568Z,95.69
2023-03-12T12:51:03.573Z,95.17
2023-03-12T12:52:03.553Z,94.86